Time;durP1;ratioP1;P1;durP2;ratioP2;P2;SDS_P1;SDS_P2;PMS_P1;PMS_P2;Temp;Humidity;BMP_temperature;BMP_pressure;BME280_temperature;BME280_humidity;BME280_pressure;Samples;Min_cycle;Max_cycle;Signal;HPM_P1;HPM_P2
2022/02/20 00:01:45;;;;;;;9.00;1.83;;;;;;;10.30;74.67;101297.63;5045899;28;20057;-62
2022/02/20 00:04:14;;;;;;;7.55;1.80;;;;;;;10.48;73.67;101299.56;5044854;28;20049;-61
2022/02/20 00:06:41;;;;;;;7.10;1.30;;;;;;;10.40;72.83;101296.66;5044586;28;20048;-62
2022/02/20 00:09:08;;;;;;;10.88;1.60;;;;;;;10.29;73.12;101295.19;5042123;28;20053;-62
2022/02/20 00:11:35;;;;;;;8.52;1.70;;;;;;;10.17;73.64;101298.34;5040913;28;20065;-63
2022/02/20 00:14:03;;;;;;;7.80;1.85;;;;;;;10.12;74.42;101295.69;5042051;28;20061;-62
2022/02/20 00:16:30;;;;;;;10.18;1.88;;;;;;;10.28;73.84;101293.53;5042699;28;20052;-61
2022/02/20 00:18:57;;;;;;;9.07;2.00;;;;;;;10.29;74.32;101290.47;5046347;28;20064;-62
2022/02/20 00:21:25;;;;;;;7.63;1.73;;;;;;;10.53;73.96;101291.22;5043310;28;20610;-62
2022/02/20 00:23:52;;;;;;;9.30;1.52;;;;;;;10.38;73.48;101301.63;5048173;28;20044;-63
2022/02/20 00:26:19;;;;;;;10.52;1.67;;;;;;;10.34;73.64;101298.66;5041685;28;20056;-62
2022/02/20 00:28:47;;;;;;;9.13;1.67;;;;;;;10.20;73.90;101298.59;5043043;28;20061;-64
2022/02/20 00:31:14;;;;;;;6.25;1.48;;;;;;;10.32;73.96;101300.88;5061031;28;20493;-65
2022/02/20 00:33:41;;;;;;;9.07;1.95;;;;;;;10.39;73.78;101308.78;5042070;28;20049;-63
2022/02/20 00:36:08;;;;;;;9.77;1.75;;;;;;;10.39;73.65;101306.03;5044737;28;20049;-64
2022/02/20 00:38:36;;;;;;;11.48;1.80;;;;;;;10.39;73.48;101297.78;5038938;28;20049;-64
2022/02/20 00:41:03;;;;;;;7.38;1.75;;;;;;;10.42;74.47;101295.25;5037683;28;20060;-65
2022/02/20 00:43:30;;;;;;;11.65;2.45;;;;;;;10.63;73.62;101295.75;5050241;28;20052;-64
2022/02/20 00:45:58;;;;;;;10.55;1.88;;;;;;;10.44;74.33;101305.97;5030435;28;20072;-65
2022/02/20 00:48:25;;;;;;;14.40;2.45;;;;;;;10.32;75.05;101303.63;5046178;28;20056;-65
2022/02/20 00:50:53;;;;;;;8.52;2.00;;;;;;;10.29;75.16;101301.50;5044237;28;20072;-64
2022/02/20 00:53:20;;;;;;;9.48;2.00;;;;;;;10.36;74.81;101304.69;5040285;28;20056;-63
2022/02/20 00:55:47;;;;;;;9.43;1.80;;;;;;;10.38;75.04;101299.72;5041293;28;20056;-64
2022/02/20 00:58:15;;;;;;;10.48;2.38;;;;;;;10.33;74.94;101301.72;5041827;28;20053;-64
2022/02/20 01:00:43;;;;;;;10.82;1.90;;;;;;;10.46;74.39;101300.97;5043674;28;20064;-63
2022/02/20 01:03:11;;;;;;;9.27;2.22;;;;;;;10.51;75.09;101285.19;5044686;28;20045;-64
2022/02/20 01:05:38;;;;;;;11.88;1.90;;;;;;;10.58;74.36;101285.66;5060534;28;20049;-64
2022/02/20 01:08:07;;;;;;;9.85;2.05;;;;;;;10.36;74.88;101288.16;5038599;28;20053;-64
2022/02/20 01:10:35;;;;;;;11.73;2.38;;;;;;;10.44;74.77;101282.00;5045759;28;20049;-64
2022/02/20 01:13:04;;;;;;;9.55;2.10;;;;;;;10.41;75.18;101282.59;5041571;28;20045;-63
2022/02/20 01:15:32;;;;;;;14.35;2.20;;;;;;;10.43;75.19;101283.09;5029598;28;20045;-64
2022/02/20 01:17:59;;;;;;;9.68;2.70;;;;;;;10.61;75.16;101281.44;5038433;28;20053;-63
2022/02/20 01:20:26;;;;;;;10.48;2.10;;;;;;;10.67;74.23;101286.56;5043775;28;20049;-64
2022/02/20 01:22:54;;;;;;;12.00;2.70;;;;;;;10.46;74.95;101279.75;5042926;28;20064;-63
2022/02/20 01:25:21;;;;;;;12.02;2.38;;;;;;;10.64;74.49;101280.84;5041205;28;20068;-64
2022/02/20 01:27:49;;;;;;;12.45;1.85;;;;;;;10.56;74.21;101282.38;5039694;28;20033;-64
2022/02/20 01:30:16;;;;;;;8.43;1.67;;;;;;;10.58;75.08;101279.31;5047801;28;20053;-64
2022/02/20 01:32:44;;;;;;;10.23;2.40;;;;;;;10.87;73.39;101280.75;5041598;28;20056;-64
2022/02/20 01:35:15;;;;;;;11.75;2.83;;;;;;;10.81;74.59;101287.44;5045407;28;20041;-63
2022/02/20 01:37:44;;;;;;;12.75;3.03;;;;;;;10.89;74.20;101289.53;5042371;28;20065;-64
2022/02/20 01:40:12;;;;;;;13.05;2.72;;;;;;;10.57;74.63;101289.50;5043873;28;20046;-64
2022/02/20 01:42:40;;;;;;;13.15;2.72;;;;;;;10.78;74.97;101287.22;5042620;28;20658;-64
2022/02/20 01:45:16;;;;;;;12.93;2.40;;;;;;;10.84;74.39;101300.66;5043584;28;20052;-64
2022/02/20 01:47:44;;;;;;;11.50;2.22;;;;;;;10.77;74.88;101302.97;5046067;28;20048;-64
2022/02/20 01:50:15;;;;;;;13.82;2.72;;;;;;;10.69;75.71;101300.88;5043014;28;20052;-64
2022/02/20 01:52:46;;;;;;;12.35;2.50;;;;;;;10.51;75.69;101306.41;5038309;28;20117;-64
2022/02/20 01:55:14;;;;;;;16.98;3.78;;;;;;;10.38;76.29;101285.09;5032675;28;20527;-64
2022/02/20 01:58:00;;;;;;;15.30;3.20;;;;;;;10.49;76.68;101273.66;5036153;28;20041;-64
2022/02/20 02:00:40;;;;;;;17.00;3.80;;;;;;;10.66;75.83;101273.94;5047919;28;20500;-64
2022/02/20 02:03:33;;;;;;;13.65;2.65;;;;;;;10.51;74.68;101274.19;5040327;28;20654;-65
2022/02/20 02:06:05;;;;;;;13.43;2.50;;;;;;;10.33;76.07;101279.69;5034326;28;20063;-64
2022/02/20 02:08:35;;;;;;;13.87;2.40;;;;;;;10.47;76.69;101264.06;5045966;28;20056;-63
2022/02/20 02:11:30;;;;;;;14.30;2.60;;;;;;;10.35;76.04;101272.78;5048191;28;20050;-65
2022/02/20 02:14:01;;;;;;;13.57;2.58;;;;;;;10.41;76.36;101270.78;5049372;28;20049;-64
2022/02/20 02:16:44;;;;;;;18.77;2.60;;;;;;;10.50;76.56;101277.22;5051719;28;20064;-64
2022/02/20 02:19:29;;;;;;;14.00;2.33;;;;;;;10.61;75.72;101276.78;5043395;28;20785;-64
2022/02/20 02:22:20;;;;;;;;;;;;;;;10.70;75.01;101276.91;5042323;28;20057;-63
2022/02/20 02:25:23;;;;;;;18.95;2.97;;;;;;;10.39;76.06;101284.00;5046111;28;19948;-64
2022/02/20 02:28:01;;;;;;;12.48;2.42;;;;;;;10.25;76.49;101280.38;5045450;28;20423;-64
2022/02/20 02:30:36;;;;;;;19.67;3.13;;;;;;;10.25;76.38;101289.44;5041669;28;20505;-63
2022/02/20 02:33:05;;;;;;;19.05;2.83;;;;;;;10.31;76.61;101292.94;5047913;28;20052;-63
2022/02/20 02:35:32;;;;;;;10.57;2.28;;;;;;;10.35;76.56;101288.47;5042109;28;20144;-64
2022/02/20 02:38:00;;;;;;;11.52;2.95;;;;;;;10.46;76.51;101274.25;5050114;28;20512;-64
2022/02/20 02:40:27;;;;;;;16.13;2.80;;;;;;;10.56;75.39;101265.00;5046441;28;20053;-64
2022/02/20 02:42:55;;;;;;;16.90;2.75;;;;;;;10.35;75.66;101260.94;5044821;28;20042;-63
2022/02/20 02:45:26;;;;;;;16.65;3.30;;;;;;;10.60;75.05;101264.09;5048504;28;20045;-63
2022/02/20 02:47:54;;;;;;;;;;;;;;;10.69;74.57;101273.31;5048532;28;20052;-62
2022/02/20 02:50:25;;;;;;;20.05;2.72;;;;;;;10.50;74.66;101271.72;5058118;28;19929;-64
2022/02/20 02:52:56;;;;;;;14.05;2.63;;;;;;;10.33;75.18;101275.00;5044815;28;20045;-64
2022/02/20 02:55:24;;;;;;;16.73;2.17;;;;;;;10.56;77.20;101273.28;5046081;28;20049;-63
2022/02/20 02:57:52;;;;;;;19.55;3.25;;;;;;;10.55;74.75;101274.41;5048724;28;20041;-63
2022/02/20 03:00:19;;;;;;;20.55;3.75;;;;;;;10.52;74.91;101277.75;5047702;28;20045;-64
2022/02/20 03:02:46;;;;;;;19.40;3.03;;;;;;;10.53;75.57;101277.44;5045506;28;20044;-64
2022/02/20 03:05:14;;;;;;;18.27;2.70;;;;;;;10.68;74.60;101279.97;5047330;28;20072;-64
2022/02/20 03:07:43;;;;;;;20.67;2.88;;;;;;;10.56;74.73;101268.59;5048286;28;20052;-64
2022/02/20 03:10:11;;;;;;;21.10;3.25;;;;;;;10.45;75.04;101291.06;5042559;28;20045;-64
2022/02/20 03:12:38;;;;;;;19.65;2.88;;;;;;;10.66;75.00;101287.72;5031553;28;20049;-64
2022/02/20 03:15:07;;;;;;;19.95;3.15;;;;;;;10.63;74.21;101273.72;5044669;28;20048;-64
2022/02/20 03:17:35;;;;;;;18.95;3.30;;;;;;;10.45;74.81;101269.84;5047648;28;20410;-64
2022/02/20 03:20:03;;;;;;;28.33;3.88;;;;;;;10.36;75.83;101263.38;5050023;28;20172;-64
2022/02/20 03:22:33;;;;;;;13.85;2.80;;;;;;;10.44;75.70;101264.66;5043975;28;20484;-64
2022/02/20 03:25:00;;;;;;;19.42;2.95;;;;;;;10.47;75.47;101264.06;5044879;28;20045;-63
2022/02/20 03:27:30;;;;;;;16.70;2.90;;;;;;;10.30;75.74;101291.31;5047870;28;20424;-64
2022/02/20 03:30:04;;;;;;;18.52;3.22;;;;;;;10.18;76.55;101286.25;5060737;28;20057;-64
2022/02/20 03:32:33;;;;;;;20.15;3.63;;;;;;;10.20;76.53;101284.81;5045993;28;20048;-64
2022/02/20 03:35:00;;;;;;;18.20;3.55;;;;;;;10.37;77.76;101275.22;5046625;28;20045;-64
2022/02/20 03:37:29;;;;;;;15.15;2.78;;;;;;;10.30;77.59;101280.28;5049341;28;20041;-63
2022/02/20 03:39:57;;;;;;;23.30;3.28;;;;;;;10.18;78.40;101291.75;5043088;28;20042;-63
2022/02/20 03:42:25;;;;;;;30.42;3.80;;;;;;;10.32;77.14;101294.59;5046182;28;20045;-65
2022/02/20 03:44:52;;;;;;;27.48;3.33;;;;;;;10.39;76.58;101289.53;5046116;28;20061;-63
2022/02/20 03:47:20;;;;;;;19.85;3.90;;;;;;;10.32;76.40;101286.31;5045723;28;20045;-64
2022/02/20 03:49:55;;;;;;;23.48;3.65;;;;;;;10.32;76.84;101286.31;5043940;28;20045;-63
2022/02/20 03:52:37;;;;;;;14.88;2.50;;;;;;;10.23;77.70;101296.34;5048058;28;20040;-64
2022/02/20 03:55:08;;;;;;;20.58;4.28;;;;;;;10.21;77.63;101293.91;5045149;28;23235;-64
2022/02/20 03:57:42;;;;;;;20.23;3.80;;;;;;;10.29;77.43;101292.44;5044824;28;20041;-63
2022/02/20 04:00:20;;;;;;;20.55;3.10;;;;;;;10.26;77.07;101293.84;5042267;28;20057;-64
2022/02/20 04:03:07;;;;;;;16.98;2.88;;;;;;;10.33;77.97;101299.78;5046165;28;20057;-63
2022/02/20 04:05:36;;;;;;;23.13;3.33;;;;;;;10.22;77.30;101297.50;5032290;28;20060;-63
2022/02/20 04:08:06;;;;;;;16.13;3.25;;;;;;;10.10;77.92;101292.41;5046383;28;20049;-64
2022/02/20 04:10:34;;;;;;;16.02;2.83;;;;;;;10.03;78.28;101286.41;5032676;28;20044;-64
2022/02/20 04:13:06;;;;;;;17.60;2.97;;;;;;;10.06;78.25;101288.56;5047832;28;20061;-64
2022/02/20 04:15:43;;;;;;;15.63;2.90;;;;;;;10.17;77.39;101284.59;5047840;28;20045;-64
2022/02/20 04:18:19;;;;;;;20.75;3.00;;;;;;;10.19;77.05;101274.09;5043572;28;20051;-64
2022/02/20 04:21:01;;;;;;;22.08;3.20;;;;;;;10.23;77.07;101281.47;5047222;28;20120;-64
2022/02/20 04:23:30;;;;;;;18.08;2.95;;;;;;;10.54;76.30;101276.34;5044912;28;20056;-64
2022/02/20 04:26:01;;;;;;;25.80;4.18;;;;;;;10.41;76.25;101268.00;5046198;28;20059;-64
2022/02/20 04:28:32;;;;;;;18.45;3.17;;;;;;;10.30;77.07;101272.03;5045113;28;20044;-62
2022/02/20 04:31:00;;;;;;;25.90;3.35;;;;;;;10.11;77.37;101278.34;5042239;28;20056;-63
2022/02/20 04:33:28;;;;;;;21.95;3.65;;;;;;;10.31;76.95;101280.00;5043633;28;20053;-63
2022/02/20 04:35:59;;;;;;;22.50;3.60;;;;;;;10.23;77.19;101294.44;5044575;28;20060;-64
2022/02/20 04:38:28;;;;;;;28.95;3.55;;;;;;;10.22;77.58;101292.78;5044830;28;20052;-64
2022/02/20 04:41:02;;;;;;;20.10;3.50;;;;;;;10.22;77.61;101280.97;5027906;28;20045;-63
2022/02/20 04:43:32;;;;;;;28.73;3.40;;;;;;;10.16;78.54;101274.72;5045244;28;20064;-64
2022/02/20 04:46:06;;;;;;;20.77;3.53;;;;;;;10.28;77.93;101279.75;5040783;28;20045;-64
2022/02/20 04:48:34;;;;;;;20.92;3.15;;;;;;;10.21;77.62;101269.13;5046602;28;20044;-63
2022/02/20 04:51:04;;;;;;;18.77;3.60;;;;;;;10.14;77.79;101255.75;5042551;28;20053;-63
2022/02/20 04:53:32;;;;;;;16.02;3.08;;;;;;;10.20;77.59;101243.53;5044519;28;20055;-64
2022/02/20 04:56:00;;;;;;;18.45;3.22;;;;;;;10.23;77.35;101240.16;5055683;28;20053;-63
2022/02/20 04:58:37;;;;;;;16.90;2.97;;;;;;;10.29;76.95;101238.16;5043055;28;20042;-63
2022/02/20 05:01:12;;;;;;;19.45;3.00;;;;;;;10.02;77.59;101240.75;5039929;28;20047;-64
2022/02/20 05:04:06;;;;;;;22.80;3.25;;;;;;;9.98;77.80;101239.69;5038779;28;20049;-63
2022/02/20 05:06:43;;;;;;;19.20;2.95;;;;;;;10.04;78.25;101246.78;5045548;28;20072;-63
2022/02/20 05:09:23;;;;;;;18.85;3.25;;;;;;;10.07;77.70;101236.00;5043991;28;20060;-64
2022/02/20 05:12:03;;;;;;;13.98;2.90;;;;;;;10.01;77.71;101228.91;5044103;28;20045;-64
2022/02/20 05:14:31;;;;;;;19.35;3.72;;;;;;;10.27;77.47;101214.81;5042546;28;20053;-62
2022/02/20 05:17:09;;;;;;;21.85;3.67;;;;;;;10.27;76.51;101221.13;5045029;28;20056;-64
2022/02/20 05:19:46;;;;;;;20.27;3.80;;;;;;;10.26;77.04;101210.41;5043185;28;20053;-62
2022/02/20 05:22:13;;;;;;;17.65;3.60;;;;;;;10.32;76.22;101212.78;5029744;28;20061;-62
2022/02/20 05:24:46;;;;;;;20.48;3.28;;;;;;;10.17;76.89;101210.28;5047641;28;20056;-62
2022/02/20 05:27:14;;;;;;;20.50;3.40;;;;;;;10.33;76.64;101200.66;5043140;28;20044;-62
2022/02/20 05:29:42;;;;;;;25.55;3.42;;;;;;;10.35;76.33;101195.69;5048445;28;20041;-61
2022/02/20 05:32:12;;;;;;;;;;;;;;;10.36;76.36;101197.31;5049852;28;20045;-62
2022/02/20 05:34:56;;;;;;;16.63;2.95;;;;;;;10.15;77.07;101215.25;5049809;28;19928;-62
2022/02/20 05:37:27;;;;;;;20.35;3.40;;;;;;;10.42;76.45;101204.38;5035506;28;20432;-62
2022/02/20 05:39:55;;;;;;;20.00;3.63;;;;;;;10.05;77.72;101232.72;5046606;28;20056;-62
2022/02/20 05:42:23;;;;;;;19.08;2.67;;;;;;;10.36;77.15;101221.25;5047907;28;20060;-62
2022/02/20 05:45:03;;;;;;;23.52;3.08;;;;;;;10.09;77.59;101221.97;5035227;28;20048;-62
2022/02/20 05:47:32;;;;;;;19.83;3.65;;;;;;;10.13;77.65;101232.06;5026065;28;20053;-63
2022/02/20 05:50:05;;;;;;;20.45;3.35;;;;;;;10.26;77.36;101244.28;5051732;28;20037;-62
2022/02/20 05:52:32;;;;;;;18.63;3.47;;;;;;;10.34;77.17;101249.09;5049631;28;20412;-63
2022/02/20 05:55:00;;;;;;;23.92;2.90;;;;;;;10.10;77.65;101254.69;5045191;28;20049;-64
2022/02/20 05:57:48;;;;;;;21.35;3.35;;;;;;;10.33;77.00;101255.72;5047207;28;20412;-62
2022/02/20 06:00:22;;;;;;;27.52;3.75;;;;;;;10.57;76.11;101259.19;5042892;28;20049;-62
2022/02/20 06:03:00;;;;;;;16.10;3.28;;;;;;;10.60;75.99;101252.28;5045833;28;20049;-62
2022/02/20 06:05:38;;;;;;;16.02;2.67;;;;;;;10.42;75.99;101259.44;5049421;28;20057;-61
2022/02/20 06:08:32;;;;;;;21.50;3.40;;;;;;;10.17;76.92;101273.59;5044021;28;20066;-61
2022/02/20 06:11:08;;;;;;;20.70;2.90;;;;;;;10.36;76.90;101266.13;5050714;28;20060;-62
2022/02/20 06:13:45;;;;;;;20.42;3.13;;;;;;;10.52;76.45;101248.25;5045170;28;20788;-62
2022/02/20 06:16:32;;;;;;;27.85;3.97;;;;;;;10.45;76.13;101235.97;5044361;28;20042;-62
2022/02/20 06:19:20;;;;;;;21.65;3.78;;;;;;;10.37;78.08;101232.00;5045838;28;20504;-62
2022/02/20 06:22:06;;;;;;;17.13;2.78;;;;;;;10.38;77.44;101244.63;5048478;28;20125;-62
2022/02/20 06:24:45;;;;;;;23.83;3.22;;;;;;;10.36;77.32;101240.53;5047427;28;20324;-62
2022/02/20 06:27:17;;;;;;;19.52;3.90;;;;;;;10.44;77.00;101232.44;5049120;28;20053;-63
2022/02/20 06:30:05;;;;;;;17.63;2.92;;;;;;;10.47;76.42;101225.50;5048048;28;20060;-62
2022/02/20 06:32:34;;;;;;;16.10;2.60;;;;;;;10.44;76.74;101212.31;5044207;28;20053;-61
2022/02/20 06:35:01;;;;;;;21.08;3.13;;;;;;;10.86;76.13;101218.47;5048009;28;20464;-62
2022/02/20 06:37:29;;;;;;;16.48;2.55;;;;;;;10.63;76.20;101226.88;5040670;28;20056;-62
2022/02/20 06:39:56;;;;;;;14.88;2.72;;;;;;;11.05;75.52;101224.72;5028286;28;20420;-62
2022/02/20 06:42:24;;;;;;;16.05;2.72;;;;;;;10.81;76.42;101224.06;5047281;28;20049;-63
2022/02/20 06:44:54;;;;;;;20.60;3.15;;;;;;;10.82;76.45;101222.97;5045785;28;20049;-62
2022/02/20 06:48:00;;;;;;;17.92;3.47;;;;;;;10.73;76.50;101224.78;5027883;28;20049;-62
2022/02/20 06:50:44;;;;;;;20.10;2.97;;;;;;;10.75;76.18;101210.69;5013315;28;20080;-62
2022/02/20 06:53:16;;;;;;;23.48;4.55;;;;;;;10.96;76.11;101212.78;5060803;28;20077;-62
2022/02/20 06:56:00;;;;;;;17.13;3.15;;;;;;;10.88;76.01;101212.66;5030613;28;20048;-61
2022/02/20 06:58:28;;;;;;;19.00;4.10;;;;;;;10.84;77.60;101209.72;5064691;28;20064;-62
2022/02/20 07:00:55;;;;;;;19.13;4.18;;;;;;;10.87;76.70;101228.38;5048428;28;20059;-63
2022/02/20 07:03:22;;;;;;;17.30;3.50;;;;;;;11.04;77.04;101223.09;5044120;28;20060;-61
2022/02/20 07:05:50;;;;;;;18.23;3.33;;;;;;;11.07;76.53;101225.25;5046549;28;20057;-62
2022/02/20 07:08:17;;;;;;;16.88;2.85;;;;;;;10.73;76.05;101218.44;5045304;28;20057;-62
2022/02/20 07:10:44;;;;;;;14.48;2.90;;;;;;;10.84;76.61;101217.97;5043701;28;20063;-62
2022/02/20 07:13:12;;;;;;;17.42;3.47;;;;;;;10.77;76.49;101228.56;5047972;28;20041;-62
2022/02/20 07:15:39;;;;;;;16.83;2.97;;;;;;;10.87;77.03;101238.56;5043999;28;20053;-62
2022/02/20 07:18:07;;;;;;;24.90;3.72;;;;;;;10.84;77.03;101253.78;5044718;28;20060;-62
2022/02/20 07:20:34;;;;;;;17.02;2.67;;;;;;;10.73;77.09;101262.53;5042571;28;20049;-62
2022/02/20 07:23:02;;;;;;;17.85;3.30;;;;;;;10.85;76.69;101241.63;5047948;28;20504;-62
2022/02/20 07:25:29;;;;;;;25.42;3.35;;;;;;;10.78;77.47;101245.91;5046364;28;20045;-63
2022/02/20 07:27:56;;;;;;;21.52;2.90;;;;;;;11.14;76.01;101257.94;5044940;28;20044;-60
2022/02/20 07:30:28;;;;;;;23.48;3.90;;;;;;;11.13;76.18;101264.56;5043489;28;20056;-62
2022/02/20 07:32:56;;;;;;;14.75;2.95;;;;;;;10.84;76.77;101261.25;5047240;28;20053;-62
2022/02/20 07:35:24;;;;;;;14.43;2.72;;;;;;;10.97;77.44;101258.50;5041239;28;20048;-62
2022/02/20 07:37:51;;;;;;;18.23;3.05;;;;;;;10.72;77.05;101272.72;5041867;28;20049;-60
2022/02/20 07:40:18;;;;;;;20.83;3.28;;;;;;;10.58;78.70;101263.59;5043800;28;20049;-62
2022/02/20 07:42:46;;;;;;;20.88;3.53;;;;;;;10.79;77.34;101256.63;5046253;28;20478;-62
2022/02/20 07:45:13;;;;;;;19.55;3.33;;;;;;;11.09;76.16;101256.09;5046959;28;20040;-62
2022/02/20 07:47:48;;;;;;;22.52;3.65;;;;;;;11.04;76.96;101274.66;5046807;28;20064;-62
2022/02/20 07:50:16;;;;;;;18.80;2.90;;;;;;;11.06;77.28;101281.50;5044312;28;20407;-63
2022/02/20 07:52:43;;;;;;;22.38;3.97;;;;;;;10.99;77.29;101286.59;5044960;28;20045;-62
2022/02/20 07:55:10;;;;;;;17.73;3.13;;;;;;;11.01;76.63;101276.09;5034490;28;20120;-62
2022/02/20 07:57:38;;;;;;;22.17;4.65;;;;;;;11.15;76.35;101292.66;5030207;28;20057;-63
2022/02/20 08:00:06;;;;;;;25.23;3.58;;;;;;;11.14;76.32;101299.31;5033980;28;20041;-61
2022/02/20 08:02:38;;;;;;;20.45;3.50;;;;;;;11.10;76.45;101317.56;5047774;28;20041;-61
2022/02/20 08:05:06;;;;;;;23.63;3.25;;;;;;;11.08;76.82;101308.78;5040623;28;20066;-63
2022/02/20 08:07:34;;;;;;;25.52;3.42;;;;;;;11.01;77.06;101320.19;5043570;28;20055;-62
2022/02/20 08:10:02;;;;;;;19.92;3.33;;;;;;;11.27;78.13;101306.78;5051174;28;20052;-63
2022/02/20 08:12:30;;;;;;;25.90;3.80;;;;;;;11.17;76.69;101296.75;5036837;28;20060;-62
2022/02/20 08:14:57;;;;;;;23.42;3.60;;;;;;;11.45;75.63;101277.47;5042990;28;20064;-62
2022/02/20 08:17:25;;;;;;;20.45;3.92;;;;;;;11.36;76.01;101271.84;5049123;28;20052;-63
2022/02/20 08:19:53;;;;;;;18.55;3.47;;;;;;;11.43;76.04;101244.69;5042188;28;20048;-62
2022/02/20 08:22:23;;;;;;;23.45;3.42;;;;;;;11.43;75.90;101246.63;5037293;28;20049;-63
2022/02/20 08:24:51;;;;;;;17.60;3.72;;;;;;;11.66;75.01;101256.66;5044682;28;20049;-63
2022/02/20 08:27:18;;;;;;;18.58;3.60;;;;;;;11.66;74.61;101268.53;5039426;28;20041;-62
2022/02/20 08:29:45;;;;;;;18.73;3.53;;;;;;;11.67;75.14;101283.94;5049869;28;20481;-64
2022/02/20 08:32:13;;;;;;;15.27;3.10;;;;;;;11.91;74.33;101267.97;5050115;28;20400;-63
2022/02/20 08:34:40;;;;;;;25.52;3.50;;;;;;;11.84;74.17;101267.59;5049961;28;20056;-64
2022/02/20 08:37:07;;;;;;;18.73;3.33;;;;;;;11.78;73.90;101243.16;5073169;28;20063;-66
2022/02/20 08:39:35;;;;;;;20.30;4.22;;;;;;;11.76;73.64;101265.56;5053706;28;20052;-64
2022/02/20 08:42:03;;;;;;;22.00;4.93;;;;;;;11.62;73.98;101259.19;5037386;28;20045;-64
2022/02/20 08:44:34;;;;;;;16.55;3.40;;;;;;;11.81;74.15;101250.81;5054611;28;20055;-63
2022/02/20 08:47:03;;;;;;;23.63;4.30;;;;;;;11.84;73.64;101248.25;5054214;28;20040;-63
2022/02/20 08:49:30;;;;;;;19.73;4.03;;;;;;;11.83;73.38;101246.63;5052126;28;20059;-64
2022/02/20 08:51:59;;;;;;;23.05;4.55;;;;;;;11.92;73.65;101260.53;5050930;28;20072;-66
2022/02/20 08:54:26;;;;;;;32.95;8.63;;;;;;;12.24;73.03;101257.56;5048357;28;20059;-64
2022/02/20 08:56:53;;;;;;;21.92;3.78;;;;;;;12.39;72.44;101249.78;5044514;28;20047;-64
2022/02/20 08:59:21;;;;;;;21.00;3.40;;;;;;;12.32;71.99;101245.81;5037318;28;20056;-64
2022/02/20 09:01:48;;;;;;;18.45;3.83;;;;;;;12.55;71.99;101241.94;5038940;28;20045;-64
2022/02/20 09:04:17;;;;;;;24.30;3.47;;;;;;;12.56;71.35;101240.78;5039071;28;20060;-64
2022/02/20 09:06:44;;;;;;;24.23;3.78;;;;;;;12.47;70.60;101239.91;5036760;28;20386;-64
2022/02/20 09:09:11;;;;;;;21.92;3.80;;;;;;;12.17;71.97;101249.72;5042658;28;20053;-64
2022/02/20 09:11:39;;;;;;;25.10;4.05;;;;;;;11.98;72.44;101262.84;5043045;28;20037;-63
2022/02/20 09:14:07;;;;;;;15.77;3.42;;;;;;;12.40;71.85;101262.44;5045154;28;20056;-63
2022/02/20 09:16:35;;;;;;;19.65;4.38;;;;;;;12.75;70.82;101260.75;5041077;28;20048;-63
2022/02/20 09:19:03;;;;;;;19.50;3.42;;;;;;;12.72;70.78;101244.81;5040319;28;20057;-64
2022/02/20 09:21:31;;;;;;;22.60;3.70;;;;;;;12.67;70.29;101250.47;5043528;28;20049;-63
2022/02/20 09:23:58;;;;;;;22.08;3.75;;;;;;;12.57;70.58;101231.34;5039785;28;20060;-63
2022/02/20 09:26:26;;;;;;;20.52;3.75;;;;;;;12.67;69.91;101236.66;5034989;28;20121;-64
2022/02/20 09:28:53;;;;;;;21.30;3.78;;;;;;;12.75;69.43;101235.88;5049515;28;20048;-63
2022/02/20 09:31:21;;;;;;;20.17;3.63;;;;;;;13.00;69.02;101246.31;5048611;28;20041;-63
2022/02/20 09:33:48;;;;;;;18.67;3.95;;;;;;;13.13;68.89;101252.88;5043164;28;20057;-64
2022/02/20 09:36:15;;;;;;;14.93;3.35;;;;;;;13.31;68.63;101235.25;5034256;28;20049;-64
2022/02/20 09:38:43;;;;;;;20.80;3.78;;;;;;;13.52;67.98;101242.66;5044324;28;20590;-64
2022/02/20 09:41:11;;;;;;;20.17;3.92;;;;;;;13.52;66.95;101239.06;5045201;28;20049;-64
2022/02/20 09:43:40;;;;;;;21.77;5.47;;;;;;;13.42;67.94;101231.88;5052284;28;20064;-64
2022/02/20 09:46:08;;;;;;;19.17;5.65;;;;;;;13.57;67.61;101223.16;5045986;28;20750;-65
2022/02/20 09:48:36;;;;;;;27.88;7.13;;;;;;;13.71;67.57;101211.13;5039809;28;20064;-64
2022/02/20 09:51:04;;;;;;;15.88;4.07;;;;;;;13.46;67.04;101204.38;5042788;28;20076;-64
2022/02/20 09:53:33;;;;;;;20.38;4.30;;;;;;;13.62;67.62;101199.19;5036640;28;20057;-64
2022/02/20 09:56:01;;;;;;;21.88;5.30;;;;;;;13.64;66.64;101205.25;5057330;28;20049;-64
2022/02/20 09:58:28;;;;;;;17.13;5.35;;;;;;;13.81;66.80;101188.69;5052737;28;20056;-63
2022/02/20 10:01:09;;;;;;;16.05;3.40;;;;;;;13.56;67.01;101204.09;5041888;28;20052;-61
2022/02/20 10:03:42;;;;;;;13.82;2.83;;;;;;;13.53;67.26;101199.19;5032305;28;20064;-62
2022/02/20 10:06:14;;;;;;;17.88;4.07;;;;;;;13.83;66.51;101214.06;5040281;28;20061;-62
2022/02/20 10:08:43;;;;;;;15.95;3.38;;;;;;;13.65;66.35;101215.97;5043230;28;20052;-62
2022/02/20 10:11:23;;;;;;;15.60;3.83;;;;;;;13.63;66.21;101221.06;5039462;28;20045;-63
2022/02/20 10:14:12;;;;;;;16.52;3.05;;;;;;;13.75;66.01;101217.66;5043529;28;20418;-64
2022/02/20 10:16:40;;;;;;;14.40;2.60;;;;;;;13.48;65.98;101224.25;5043215;28;20048;-63
2022/02/20 10:19:54;;;;;;;14.82;2.85;;;;;;;13.53;66.50;101230.44;5039171;28;20053;-63
2022/02/20 10:22:41;;;;;;;15.75;3.28;;;;;;;13.69;66.53;101230.81;5046411;28;20053;-64
2022/02/20 10:25:27;;;;;;;14.27;2.53;;;;;;;13.79;65.84;101229.72;5044841;28;20057;-63
2022/02/20 10:28:20;;;;;;;18.60;3.15;;;;;;;13.29;66.16;101238.34;5041814;28;20049;-64
2022/02/20 10:30:55;;;;;;;14.82;3.30;;;;;;;13.45;66.30;101219.34;5035486;28;20044;-63
2022/02/20 10:33:24;;;;;;;11.32;3.20;;;;;;;13.75;65.43;101214.88;5046997;28;20062;-65
2022/02/20 10:35:53;;;;;;;14.27;2.65;;;;;;;13.56;65.38;101210.44;5047643;28;20051;-65
2022/02/20 10:38:26;;;;;;;15.93;3.00;;;;;;;13.74;65.18;101207.72;5048107;28;20045;-64
2022/02/20 10:40:55;;;;;;;13.45;2.55;;;;;;;13.69;64.24;101208.69;5043779;28;20049;-65
2022/02/20 10:43:37;;;;;;;18.58;3.20;;;;;;;13.60;63.30;101220.88;5049055;28;20052;-65
2022/02/20 10:46:10;;;;;;;17.20;2.75;;;;;;;13.32;65.05;101214.72;5043589;28;20049;-65
2022/02/20 10:48:45;;;;;;;16.77;3.15;;;;;;;13.61;64.25;101225.25;5046712;28;20060;-66
2022/02/20 10:51:17;;;;;;;16.85;3.55;;;;;;;13.57;63.93;101230.63;5050957;28;20037;-66
2022/02/20 10:53:46;;;;;;;16.27;3.00;;;;;;;13.78;64.07;101222.53;5048528;28;20054;-65
2022/02/20 10:56:13;;;;;;;19.35;3.55;;;;;;;13.68;63.97;101222.84;5044577;28;20049;-65
2022/02/20 10:58:43;;;;;;;19.23;3.17;;;;;;;13.78;63.63;101208.69;5045930;28;20128;-66
2022/02/20 11:01:24;;;;;;;16.77;3.05;;;;;;;14.05;62.82;101197.34;5047186;28;20041;-65
2022/02/20 11:04:08;;;;;;;15.05;2.97;;;;;;;14.09;62.51;101190.00;5045629;28;20072;-66
2022/02/20 11:06:39;;;;;;;13.45;2.95;;;;;;;14.08;62.22;101174.53;5045648;28;20049;-65
2022/02/20 11:09:09;;;;;;;15.57;3.60;;;;;;;14.24;62.44;101164.59;5045392;28;20049;-65
2022/02/20 11:11:41;;;;;;;;;;;;;;;14.26;61.96;101163.13;5046557;28;20045;-66
2022/02/20 11:14:09;;;;;;;16.30;3.50;;;;;;;14.43;61.70;101170.63;5042433;28;19931;-65
2022/02/20 11:16:45;;;;;;;15.05;3.00;;;;;;;14.46;60.98;101172.75;5040846;28;20042;-66
2022/02/20 11:19:14;;;;;;;16.08;2.85;;;;;;;14.72;60.78;101167.97;5040695;28;20497;-65
2022/02/20 11:21:45;;;;;;;12.27;3.42;;;;;;;14.84;59.48;101158.94;5041813;28;20361;-65
2022/02/20 11:24:13;;;;;;;15.18;3.45;;;;;;;14.65;60.49;101168.47;5046745;28;20048;-66
2022/02/20 11:26:42;;;;;;;16.95;4.13;;;;;;;14.66;60.01;101164.53;5027962;28;20080;-66
2022/02/20 11:29:10;;;;;;;16.60;3.83;;;;;;;14.71;60.04;101168.28;5043995;28;20049;-67
2022/02/20 11:31:39;;;;;;;20.58;3.88;;;;;;;14.95;59.74;101143.56;5037219;28;20041;-65
2022/02/20 11:34:07;;;;;;;19.35;3.60;;;;;;;14.47;59.35;101163.28;5041199;28;20056;-65
2022/02/20 11:36:35;;;;;;;13.32;3.00;;;;;;;14.33;60.42;101146.03;5041735;28;20046;-65
2022/02/20 11:39:11;;;;;;;16.60;3.42;;;;;;;14.28;60.24;101157.25;5041755;28;20049;-65